Terminal Aerodrome Forecast
Issued by NWS

Home | Current Version | Previous Version | Text Only | Print | Product List | Glossary On
Versions: 1 2 3 4 5 6 7 8 9 10 11 12 13 14 15 16 17 18 19 20
859
FTUS44 KSJT 011234 AAA
TAFSOA
TAF AMD
KSOA 011234Z 0113/0212 05011KT 5SM BR BKN012
     FM012000 03011G20KT P6SM BKN035
     FM020000 03013G20KT P6SM VCSH BKN035=

USA.gov is the U.S. government's official web portal to all federal, state and local government web resources and services.